INDIA METEOROLOGICAL DEPARTMENT, R.M.C. NEW DELHI
Dated:21-04-2018
METARS


Amritsar   
VIAR 202000Z VRB02KT 4000 BR FEW040 16/13 Q1011 NOSIG=
Delhi      
VIDP 202000Z 28011KT 2500 DU FEW100 30/M05 Q1008 NOSIG=
Jaipur     
VIJP 202000Z 36007KT 2000 HZ NSC 28/M04 Q1009 NOSIG=
Lucknow    
VILK 201930Z VRB02KT 3000 HZ FEW020 SCT100 27/18 Q1005 NOSIG=
Varanasi   
VEBN 201930Z 08003KT 3000 HZ NSC 31/16 Q1002 NOSIG=
Bhuj-Rudra 
VABJ 201930Z 23004KT 6000 SKC 26/23 Q1009 NOSIG=
Pune       
VAPO 201930Z 27006KT 6000 FEW250 23/17 Q1013 NOSIG=
Jamnagar   
VAJM 201830Z 28005KT 6000 SKC 27/24 Q1009 NOSIG=